| time (UTC) | temp F | wind direction | speed knots | gust knots | rain 1hr in | rain 24hr in | rain mn in | humidity % | barometer mb |
| 20260507110040 | 49 | 360 | 0.0 | 0.0 | 0.01 | 0.26 | 0.19 | 94 | 1007.1 |
| 20260507104507 | 49 | 360 | 0.0 | 1.7 | 0.05 | 0.26 | 0.19 | 93 | 1006.8 |
| 20260507103026 | 49 | 349 | 0.0 | 1.7 | 0.05 | 0.26 | 0.19 | 93 | 1006.6 |
| 20260507101547 | 49 | 346 | 0.0 | 1.7 | 0.05 | 0.25 | 0.18 | 93 | 1006.1 |
| 20260507100012 | 49 | 360 | 0.0 | 0.9 | 0.06 | 0.25 | 0.18 | 93 | 1006.2 |
| 20260507094542 | 49 | 360 | 0.0 | 1.7 | 0.02 | 0.21 | 0.14 | 93 | 1006.4 |
| 20260507093017 | 50 | 360 | 0.0 | 0.9 | 0.02 | 0.21 | 0.14 | 93 | 1006.3 |
| 20260507091542 | 50 | 360 | 0.0 | 2.6 | 0.02 | 0.20 | 0.13 | 93 | 1006.0 |
| 20260507090017 | 50 | 316 | 0.0 | 3.5 | 0.03 | 0.19 | 0.12 | 93 | 1006.0 |
| 20260507084545 | 50 | 344 | 0.9 | 2.6 | 0.04 | 0.19 | 0.12 | 93 | 1005.7 |
| 20260507083010 | 51 | 296 | 0.0 | 1.7 | 0.05 | 0.19 | 0.12 | 93 | 1005.8 |
| 20260507081537 | 51 | 30 | 0.0 | 2.6 | 0.06 | 0.17 | 0.11 | 92 | 1005.7 |
| 20260507080059 | 51 | 290 | 0.9 | 2.6 | 0.09 | 0.16 | 0.09 | 92 | 1006.0 |
| 20260507080001 | 51 | 360 | 0.0 | 1.7 | 0.09 | 0.16 | 0.09 | 92 | 1006.0 |
| 20260507074526 | 51 | 360 | 0.0 | 0.9 | 0.08 | 0.15 | 0.08 | 92 | 1005.9 |
| 20260507073102 | 52 | 272 | 0.0 | 3.5 | 0.07 | 0.14 | 0.07 | 90 | 1006.7 |
| 20260507071523 | 53 | 10 | 0.0 | 6.1 | 0.04 | 0.11 | 0.04 | 89 | 1006.0 |
| 20260507070051 | 53 | 248 | 0.0 | 4.3 | 0.00 | 0.07 | 0.00 | 88 | 1005.4 |
| 20260507064525 | 53 | 360 | 0.9 | 7.0 | 0.00 | 0.07 | 0.00 | 87 | 1004.9 |
| 20260507063044 | 53 | 277 | 0.9 | 3.5 | 0.00 | 0.07 | 0.00 | 88 | 1005.0 |
| 20260507061513 | 54 | 360 | 0.0 | 3.5 | 0.00 | 0.07 | 0.00 | 88 | 1005.4 |
| 20260507060041 | 55 | 25 | 0.0 | 2.6 | 0.00 | 0.07 | 0.00 | 91 | 1005.0 |
| 20260507054558 | 55 | 31 | 0.0 | 5.2 | 0.00 | 0.07 | 0.00 | 93 | 1005.4 |
| 20260507053025 | 56 | 360 | 0.0 | 1.7 | 0.00 | 0.07 | 0.00 | 93 | 1005.6 |
| 20260507051552 | 56 | 265 | 0.0 | 0.0 | 0.00 | 0.07 | 0.00 | 93 | 1005.6 |
| 20260507050026 | 56 | 262 | 0.0 | 0.0 | 0.00 | 0.07 | 0.00 | 93 | 1005.7 |
| 20260507044604 | 57 | 263 | 0.0 | 0.0 | 0.00 | 0.07 | 0.00 | 94 | 1005.8 |
| 20260507043023 | 57 | 360 | 0.0 | 0.0 | 0.00 | 0.07 | 0.00 | 94 | 1005.7 |
| 20260507041553 | 57 | 360 | 0.0 | 3.5 | 0.00 | 0.07 | 0.00 | 94 | 1005.8 |
| 20260507040013 | 58 | 266 | 0.0 | 2.6 | 0.00 | 0.07 | 0.00 | 95 | 1005.7 |
| 20260507034532 | 57 | 192 | 0.0 | 3.5 | 0.00 | 0.07 | 0.07 | 95 | 1005.9 |
| 20260507033050 | 57 | 360 | 0.9 | 4.3 | 0.00 | 0.07 | 0.07 | 95 | 1005.5 |
| 20260507031522 | 57 | 150 | 2.6 | 4.3 | 0.00 | 0.07 | 0.07 | 95 | 1005.5 |
| 20260507030052 | 57 | 360 | 0.9 | 3.5 | 0.00 | 0.07 | 0.07 | 95 | 1005.7 |
| 20260507024526 | 57 | 189 | 1.7 | 5.2 | 0.00 | 0.07 | 0.07 | 95 | 1005.6 |
| 20260507023104 | 57 | 360 | 1.7 | 7.0 | 0.00 | 0.07 | 0.07 | 95 | 1005.7 |
| 20260507021523 | 57 | 158 | 3.5 | 7.0 | 0.00 | 0.07 | 0.07 | 95 | 1005.5 |
| 20260507020059 | 57 | 209 | 2.6 | 7.8 | 0.00 | 0.07 | 0.07 | 95 | 1005.6 |
| 20260507014528 | 57 | 144 | 1.7 | 6.1 | 0.00 | 0.07 | 0.07 | 95 | 1005.5 |
| 20260507013100 | 57 | 360 | 2.6 | 6.1 | 0.00 | 0.07 | 0.07 | 95 | 1005.3 |
| 20260507013003 | 57 | 196 | 2.6 | 6.1 | 0.00 | 0.07 | 0.07 | 95 | 1005.2 |
| 20260507011539 | 57 | 155 | 2.6 | 6.1 | 0.00 | 0.07 | 0.07 | 95 | 1005.5 |
| 20260507010059 | 57 | 190 | 1.7 | 5.2 | 0.00 | 0.07 | 0.07 | 95 | 1005.7 |
| 20260507004536 | 57 | 360 | 1.7 | 5.2 | 0.00 | 0.07 | 0.07 | 95 | 1005.9 |
| 20260507003114 | 57 | 198 | 2.6 | 7.0 | 0.00 | 0.07 | 0.07 | 95 | 1005.8 |
| 20260507001550 | 57 | 213 | 1.7 | 8.7 | 0.00 | 0.07 | 0.07 | 95 | 1005.7 |
| 20260507000055 | 57 | 172 | 1.7 | 9.6 | 0.00 | 0.07 | 0.07 | 94 | 1005.5 |
| 20260506234519 | 57 | 204 | 3.5 | 8.7 | 0.00 | 0.07 | 0.07 | 94 | 1005.6 |
| 20260506233043 | 57 | 360 | 1.7 | 7.8 | 0.01 | 0.07 | 0.07 | 94 | 1005.4 |
| 20260506231519 | 57 | 187 | 5.2 | 8.7 | 0.01 | 0.07 | 0.07 | 94 | 1005.4 |
| 20260506230052 | 57 | 360 | 1.7 | 8.7 | 0.02 | 0.07 | 0.07 | 93 | 1005.3 |
| 20260506224512 | 57 | 155 | 2.6 | 7.8 | 0.02 | 0.07 | 0.07 | 93 | 1005.3 |
| 20260506223032 | 58 | 165 | 2.6 | 7.8 | 0.01 | 0.06 | 0.06 | 93 | 1005.3 |
| 20260506221508 | 58 | 360 | 4.3 | 9.6 | 0.01 | 0.06 | 0.06 | 93 | 1005.2 |
| 20260506220036 | 58 | 217 | 4.3 | 9.6 | 0.00 | 0.05 | 0.05 | 93 | 1005.1 |
| 20260506214555 | 58 | 360 | 2.6 | 7.8 | 0.00 | 0.05 | 0.05 | 93 | 1005.2 |
| 20260506213021 | 58 | 360 | 4.3 | 10.4 | 0.00 | 0.05 | 0.05 | 92 | 1005.5 |
| 20260506211547 | 58 | 208 | 2.6 | 7.8 | 0.00 | 0.05 | 0.05 | 92 | 1005.7 |
| 20260506210044 | 58 | 188 | 0.9 | 9.6 | 0.00 | 0.05 | 0.05 | 91 | 1005.7 |
| 20260506204547 | 59 | 360 | 3.5 | 13.0 | 0.00 | 0.05 | 0.05 | 91 | 1006.0 |
| 20260506203017 | 59 | 192 | 3.5 | 8.7 | 0.00 | 0.05 | 0.05 | 91 | 1005.9 |
| 20260506201541 | 58 | 360 | 4.3 | 11.3 | 0.02 | 0.05 | 0.05 | 91 | 1006.1 |
| 20260506200012 | 58 | 360 | 4.3 | 12.2 | 0.04 | 0.05 | 0.05 | 91 | 1006.2 |
| 20260506194531 | 58 | 194 | 2.6 | 9.6 | 0.04 | 0.05 | 0.05 | 91 | 1006.3 |
| 20260506193106 | 59 | 360 | 5.2 | 9.6 | 0.05 | 0.05 | 0.05 | 90 | 1006.5 |
| 20260506191529 | 59 | 360 | 1.7 | 13.0 | 0.03 | 0.03 | 0.04 | 89 | 1006.6 |
| 20260506190054 | 59 | 190 | 3.5 | 8.7 | 0.01 | 0.01 | 0.01 | 87 | 1006.4 |
| 20260506184527 | 60 | 360 | 4.3 | 9.6 | 0.01 | 0.01 | 0.01 | 86 | 1006.6 |
| 20260506183044 | 60 | 196 | 4.3 | 9.6 | 0.00 | 0.00 | 0.00 | 83 | 1007.0 |
| 20260506181527 | 62 | 152 | 3.5 | 12.2 | 0.00 | 0.00 | 0.00 | 78 | 1007.1 |
| 20260506180041 | 63 | 167 | 5.2 | 10.4 | 0.00 | 0.00 | 0.00 | 75 | 1007.3 |
| 20260506174514 | 64 | 138 | 4.3 | 9.6 | 0.00 | 0.00 | 0.00 | 74 | 1007.3 |
| 20260506173046 | 65 | 161 | 4.3 | 9.6 | 0.00 | 0.00 | 0.00 | 71 | 1007.4 |
| 20260506171510 | 66 | 144 | 2.6 | 13.0 | 0.00 | 0.00 | 0.00 | 71 | 1007.7 |
| 20260506170047 | 66 | 227 | 4.3 | 13.0 | 0.00 | 0.00 | 0.00 | 70 | 1007.6 |
| 20260506164528 | 66 | 147 | 5.2 | 12.2 | 0.00 | 0.00 | 0.00 | 68 | 1007.6 |
| 20260506163042 | 67 | 211 | 5.2 | 12.2 | 0.00 | 0.00 | 0.00 | 68 | 1007.8 |
| 20260506161557 | 67 | 163 | 5.2 | 12.2 | 0.00 | 0.00 | 0.00 | 68 | 1008.1 |
| 20260506160035 | 68 | 201 | 5.2 | 12.2 | 0.00 | 0.00 | 0.00 | 67 | 1008.2 |
| 20260506154601 | 68 | 188 | 3.5 | 12.2 | 0.00 | 0.00 | 0.00 | 66 | 1008.1 |
| 20260506154502 | 68 | 144 | 4.3 | 11.3 | 0.00 | 0.00 | 0.00 | 67 | 1008.1 |
| 20260506153034 | 68 | 175 | 5.2 | 10.4 | 0.00 | 0.00 | 0.00 | 67 | 1008.3 |
| 20260506151604 | 67 | 132 | 6.1 | 13.0 | 0.00 | 0.00 | 0.00 | 68 | 1008.5 |
| 20260506150028 | 67 | 141 | 5.2 | 14.8 | 0.00 | 0.00 | 0.00 | 69 | 1008.5 |
| 20260506144544 | 67 | 195 | 5.2 | 10.4 | 0.00 | 0.00 | 0.00 | 68 | 1008.6 |
| 20260506143023 | 66 | 166 | 4.3 | 13.0 | 0.00 | 0.00 | 0.00 | 70 | 1008.7 |
| 20260506141548 | 66 | 173 | 4.3 | 14.8 | 0.00 | 0.00 | 0.00 | 70 | 1008.7 |
| 20260506140026 | 66 | 192 | 6.1 | 12.2 | 0.00 | 0.00 | 0.00 | 70 | 1008.6 |
| 20260506134556 | 65 | 152 | 4.3 | 10.4 | 0.00 | 0.00 | 0.00 | 72 | 1008.7 |
| 20260506133024 | 65 | 219 | 5.2 | 13.0 | 0.00 | 0.00 | 0.00 | 73 | 1008.8 |
| 20260506131603 | 64 | 147 | 4.3 | 10.4 | 0.00 | 0.00 | 0.00 | 74 | 1008.8 |
| 20260506130021 | 63 | 190 | 3.5 | 12.2 | 0.00 | 0.00 | 0.00 | 77 | 1009.2 |
| 20260506124545 | 62 | 185 | 5.2 | 9.6 | 0.00 | 0.00 | 0.00 | 78 | 1009.1 |
| 20260506123018 | 61 | 213 | 4.3 | 8.7 | 0.00 | 0.00 | 0.00 | 80 | 1009.1 |
| 20260506121552 | 60 | 180 | 3.5 | 11.3 | 0.00 | 0.00 | 0.00 | 82 | 1009.1 |
| 20260506120030 | 60 | 200 | 5.2 | 11.3 | 0.00 | 0.00 | 0.00 | 82 | 1009.2 |
| 20260506114548 | 59 | 160 | 6.1 | 10.4 | 0.00 | 0.00 | 0.00 | 84 | 1009.4 |
| 20260506113026 | 58 | 157 | 3.5 | 8.7 | 0.00 | 0.00 | 0.00 | 86 | 1009.6 |
| 20260506111545 | 58 | 156 | 3.5 | 8.7 | 0.00 | 0.00 | 0.00 | 86 | 1009.6 |